Terminal Aerodrome Forecast
Issued by NWS

Home | Current Version | Previous Version | Text Only | Print | Product List | Glossary On
Versions: 1 2 3 4 5 6 7 8 9 10 11 12
992
FTUS45 KFGZ 221120
TAFSEZ
TAF
KSEZ 221120Z 2212/2312 17010KT P6SM SCT070 SCT120
     FM221800 21012G22KT P6SM VCSH SCT050 BKN090
      TEMPO 2220/2224 5SM -SHRA BKN030 OVC060
     FM230000 21009KT P6SM VCSH BKN035 BKN050 PROB30 2301/2305 6SM
      -SHRA BR=

USA.gov is the U.S. government's official web portal to all federal, state and local government web resources and services.